createdAt,value
2022-12-12T17:05:27.866Z,17.35
2022-12-12T17:08:15.301Z,20.95
2022-12-12T17:11:10.215Z,16.15
2022-12-12T17:13:56.077Z,19.02
2022-12-12T17:16:41.607Z,18.88
2022-12-12T17:19:27.007Z,16.77
2022-12-12T17:22:12.295Z,15.00
2022-12-12T17:24:57.544Z,14.35
2022-12-12T17:27:43.112Z,15.25
2022-12-12T17:30:28.306Z,15.35
2022-12-12T17:33:19.799Z,14.40
2022-12-12T17:36:06.730Z,12.88
2022-12-12T17:38:51.917Z,15.45
2022-12-12T17:41:36.994Z,13.10
2022-12-12T17:44:23.674Z,12.55
2022-12-12T17:47:08.898Z,13.20
2022-12-12T17:49:54.232Z,9.98
2022-12-12T17:52:39.470Z,12.07
2022-12-12T17:55:53.976Z,13.65
2022-12-12T17:58:41.211Z,11.73
2022-12-12T18:01:29.309Z,12.75
2022-12-12T18:04:15.137Z,13.07
2022-12-12T18:07:00.326Z,10.93
2022-12-12T18:09:46.052Z,11.43
2022-12-12T18:12:31.770Z,12.10
2022-12-12T18:15:17.013Z,13.57
2022-12-12T18:18:02.069Z,12.75
2022-12-12T18:20:47.848Z,9.18
2022-12-12T18:23:33.929Z,10.57
2022-12-12T18:26:22.246Z,9.88
2022-12-12T18:29:08.503Z,11.40
2022-12-12T18:31:54.349Z,11.10
2022-12-12T18:34:40.375Z,13.57
2022-12-12T18:37:25.563Z,10.45
2022-12-12T18:40:11.180Z,11.27
2022-12-12T18:42:56.562Z,12.90
2022-12-12T18:45:41.778Z,17.98
2022-12-12T18:48:27.310Z,12.77
2022-12-12T18:51:16.501Z,12.75
2022-12-12T18:54:05.360Z,8.70
2022-12-12T18:56:53.506Z,10.77
2022-12-12T18:59:39.335Z,12.95
2022-12-12T19:02:24.526Z,10.55
2022-12-12T19:05:13.243Z,12.02
2022-12-12T19:07:58.709Z,7.40
2022-12-12T19:10:46.326Z,10.55
2022-12-12T19:13:31.531Z,11.88
2022-12-12T19:16:20.956Z,12.32
2022-12-12T19:19:06.382Z,12.07
2022-12-12T19:21:52.395Z,14.48
2022-12-12T19:24:40.905Z,12.48
2022-12-12T19:27:28.306Z,13.82
2022-12-12T19:30:15.672Z,14.32
2022-12-12T19:33:01.016Z,17.88
2022-12-12T19:35:46.235Z,14.75
2022-12-12T19:38:31.785Z,18.58
2022-12-12T19:41:19.913Z,10.75
2022-12-12T19:44:08.793Z,13.23
2022-12-12T19:46:53.957Z,14.65
2022-12-12T19:49:39.569Z,10.70
2022-12-12T19:52:24.960Z,11.10
2022-12-12T19:55:10.319Z,12.07
2022-12-12T19:57:55.865Z,10.52
2022-12-12T20:00:41.018Z,12.63
2022-12-12T20:03:26.358Z,11.27
2022-12-12T20:06:11.660Z,12.15
2022-12-12T20:09:00.420Z,13.45
2022-12-12T20:11:46.625Z,12.98
2022-12-12T20:14:33.583Z,13.80
2022-12-12T20:17:18.822Z,12.15
2022-12-12T20:20:04.947Z,12.45
2022-12-12T20:22:50.271Z,12.48
2022-12-12T20:25:40.697Z,15.35
2022-12-12T20:28:26.110Z,17.60
2022-12-12T20:31:14.532Z,21.02
2022-12-12T20:34:00.478Z,20.25
2022-12-12T20:36:46.410Z,21.70
2022-12-12T20:39:31.725Z,25.05
2022-12-12T20:42:16.830Z,23.02
2022-12-12T20:45:03.124Z,25.48
2022-12-12T20:47:48.500Z,26.25
2022-12-12T20:50:33.672Z,29.48
2022-12-12T20:53:19.902Z,31.60
2022-12-12T20:56:11.050Z,32.50
2022-12-12T20:58:59.870Z,31.67
2022-12-12T21:01:47.077Z,22.77
2022-12-12T21:04:32.855Z,30.42
2022-12-12T21:07:18.134Z,34.30
2022-12-12T21:10:04.053Z,31.85
2022-12-12T21:12:49.376Z,35.75
2022-12-12T21:15:35.658Z,40.50
2022-12-12T21:18:21.069Z,39.47
2022-12-12T21:21:10.684Z,32.70
2022-12-12T21:23:56.205Z,30.30
2022-12-12T21:26:41.907Z,33.85
2022-12-12T21:29:27.119Z,31.63
2022-12-12T21:32:12.247Z,31.55
2022-12-12T21:34:57.733Z,29.40
2022-12-12T21:37:43.118Z,27.25
2022-12-12T21:40:28.833Z,31.15
2022-12-12T21:43:14.311Z,23.60
2022-12-12T21:46:04.638Z,25.98
2022-12-12T21:49:10.501Z,23.67
2022-12-12T21:51:58.165Z,25.33
2022-12-12T21:54:43.393Z,21.65
2022-12-12T21:57:29.083Z,22.48
2022-12-12T22:00:16.116Z,20.83
2022-12-12T22:03:01.677Z,18.83
2022-12-12T22:05:47.078Z,18.45
2022-12-12T22:08:32.494Z,20.70
2022-12-12T22:11:23.868Z,18.35
2022-12-12T22:14:24.596Z,20.98
2022-12-12T22:17:09.625Z,21.10
2022-12-12T22:19:57.347Z,20.75
2022-12-12T22:22:42.787Z,21.95
2022-12-12T22:25:29.062Z,21.05
2022-12-12T22:28:14.583Z,20.75
2022-12-12T22:31:04.755Z,19.98
2022-12-12T22:33:59.349Z,22.02
2022-12-12T22:36:46.055Z,22.70
2022-12-12T22:39:31.229Z,22.92
2022-12-12T22:42:16.671Z,25.00
2022-12-12T22:45:02.570Z,22.90
2022-12-12T22:47:47.942Z,24.20
2022-12-12T22:50:33.419Z,26.40
2022-12-12T22:53:18.747Z,24.85
2022-12-12T22:56:04.109Z,20.60
2022-12-12T22:58:49.529Z,23.73
2022-12-12T23:01:34.831Z,26.23
2022-12-12T23:04:20.267Z,26.35
2022-12-12T23:07:05.528Z,26.42
2022-12-12T23:09:53.615Z,22.55
2022-12-12T23:12:39.850Z,25.63
2022-12-12T23:15:25.314Z,24.48
2022-12-12T23:18:10.642Z,27.15
2022-12-12T23:20:56.135Z,24.73
2022-12-12T23:23:41.878Z,23.92
2022-12-12T23:26:30.073Z,28.20
2022-12-12T23:29:16.811Z,21.92
2022-12-12T23:32:03.000Z,23.42
2022-12-12T23:34:49.136Z,24.42
2022-12-12T23:37:34.365Z,22.23
2022-12-12T23:40:19.566Z,25.50
2022-12-12T23:43:04.534Z,25.48
2022-12-12T23:45:50.081Z,24.35
2022-12-12T23:48:35.326Z,21.83
2022-12-12T23:51:20.681Z,23.90
2022-12-12T23:54:09.913Z,25.08
2022-12-12T23:57:23.855Z,27.83
